sensor_id;sensor_type;location;lat;lon;timestamp;pressure;altitude;pressure_sealevel;temperature;humidity
40992;BME280;29633;49.168;9.848;2023-04-03T00:00:12;97598.78;;;9.55;66.95
40992;BME280;29633;49.168;9.848;2023-04-03T00:02:37;97592.66;;;9.56;66.91
40992;BME280;29633;49.168;9.848;2023-04-03T00:05:03;97595.38;;;9.54;67.02
40992;BME280;29633;49.168;9.848;2023-04-03T00:07:30;97591.75;;;9.57;66.88
40992;BME280;29633;49.168;9.848;2023-04-03T00:09:55;97592.47;;;9.59;66.86
40992;BME280;29633;49.168;9.848;2023-04-03T00:12:21;97592.28;;;9.62;66.95
40992;BME280;29633;49.168;9.848;2023-04-03T00:14:47;97585.34;;;9.62;66.95
40992;BME280;29633;49.168;9.848;2023-04-03T00:17:12;97597.34;;;9.63;66.83
40992;BME280;29633;49.168;9.848;2023-04-03T00:19:38;97587.91;;;9.62;66.99
40992;BME280;29633;49.168;9.848;2023-04-03T00:22:03;97593.94;;;9.63;66.75
40992;BME280;29633;49.168;9.848;2023-04-03T00:24:29;97598.28;;;9.62;66.78
40992;BME280;29633;49.168;9.848;2023-04-03T00:26:55;97595.59;;;9.64;66.90
40992;BME280;29633;49.168;9.848;2023-04-03T00:29:20;97600.78;;;9.64;66.92
40992;BME280;29633;49.168;9.848;2023-04-03T00:31:46;97602.66;;;9.62;66.70
40992;BME280;29633;49.168;9.848;2023-04-03T00:34:12;97602.66;;;9.62;66.80
40992;BME280;29633;49.168;9.848;2023-04-03T00:36:37;97595.59;;;9.64;66.81
40992;BME280;29633;49.168;9.848;2023-04-03T00:39:03;97600.06;;;9.62;66.82
40992;BME280;29633;49.168;9.848;2023-04-03T00:41:28;97600.97;;;9.61;66.71
40992;BME280;29633;49.168;9.848;2023-04-03T00:43:54;97595.81;;;9.61;66.74
40992;BME280;29633;49.168;9.848;2023-04-03T00:46:20;97598.47;;;9.59;66.80
40992;BME280;29633;49.168;9.848;2023-04-03T00:48:47;97595.81;;;9.61;66.66
40992;BME280;29633;49.168;9.848;2023-04-03T00:51:14;97597.84;;;9.56;66.47
40992;BME280;29633;49.168;9.848;2023-04-03T00:53:46;97599.59;;;9.55;66.73
40992;BME280;29633;49.168;9.848;2023-04-03T00:56:15;97597.84;;;9.56;66.78
40992;BME280;29633;49.168;9.848;2023-04-03T00:58:46;97597.84;;;9.56;66.56
40992;BME280;29633;49.168;9.848;2023-04-03T01:01:16;97595.38;;;9.54;66.73
40992;BME280;29633;49.168;9.848;2023-04-03T01:03:43;97591.81;;;9.55;66.71
40992;BME280;29633;49.168;9.848;2023-04-03T01:06:09;97590.81;;;9.58;66.61
40992;BME280;29633;49.168;9.848;2023-04-03T01:08:35;97593.50;;;9.56;66.65
40992;BME280;29633;49.168;9.848;2023-04-03T01:11:01;97593.50;;;9.56;66.74
40992;BME280;29633;49.168;9.848;2023-04-03T01:13:28;97593.59;;;9.55;66.57
40992;BME280;29633;49.168;9.848;2023-04-03T01:15:55;97591.81;;;9.55;66.50
40992;BME280;29633;49.168;9.848;2023-04-03T01:18:25;97599.59;;;9.55;66.89
40992;BME280;29633;49.168;9.848;2023-04-03T01:21:18;97595.38;;;9.54;66.48
40992;BME280;29633;49.168;9.848;2023-04-03T01:24:16;97602.38;;;9.52;66.66
40992;BME280;29633;49.168;9.848;2023-04-03T01:26:45;97597.19;;;9.52;66.61
40992;BME280;29633;49.168;9.848;2023-04-03T01:29:11;97596.38;;;9.52;66.62
40992;BME280;29633;49.168;9.848;2023-04-03T01:34:03;97597.13;;;9.54;66.71
40992;BME280;29633;49.168;9.848;2023-04-03T01:36:30;97599.72;;;9.54;66.77
40992;BME280;29633;49.168;9.848;2023-04-03T01:38:57;97594.53;;;9.54;66.47
40992;BME280;29633;49.168;9.848;2023-04-03T01:41:24;97590.19;;;9.54;66.20
40992;BME280;29633;49.168;9.848;2023-04-03T01:43:51;97595.38;;;9.54;66.39
40992;BME280;29633;49.168;9.848;2023-04-03T01:46:17;97597.00;;;9.55;66.46
40992;BME280;29633;49.168;9.848;2023-04-03T01:48:43;97597.00;;;9.55;66.44
40992;BME280;29633;49.168;9.848;2023-04-03T01:51:09;97596.19;;;9.55;66.42
40992;BME280;29633;49.168;9.848;2023-04-03T01:53:35;97598.78;;;9.55;66.44
40992;BME280;29633;49.168;9.848;2023-04-03T01:56:01;97591.81;;;9.55;66.39
40992;BME280;29633;49.168;9.848;2023-04-03T01:58:26;97596.09;;;9.56;66.25
40992;BME280;29633;49.168;9.848;2023-04-03T02:00:52;97596.09;;;9.56;66.38
40992;BME280;29633;49.168;9.848;2023-04-03T02:03:18;97595.25;;;9.56;66.33
40992;BME280;29633;49.168;9.848;2023-04-03T02:05:44;97594.53;;;9.54;66.45
40992;BME280;29633;49.168;9.848;2023-04-03T02:08:10;97604.06;;;9.53;66.60
40992;BME280;29633;49.168;9.848;2023-04-03T02:10:36;97604.88;;;9.54;66.21
40992;BME280;29633;49.168;9.848;2023-04-03T02:13:02;97609.22;;;9.53;66.38
40992;BME280;29633;49.168;9.848;2023-04-03T02:15:28;97600.63;;;9.53;66.41
40992;BME280;29633;49.168;9.848;2023-04-03T02:17:53;97599.72;;;9.54;66.48
40992;BME280;29633;49.168;9.848;2023-04-03T02:20:19;97610.91;;;9.54;66.42
40992;BME280;29633;49.168;9.848;2023-04-03T02:22:45;97601.38;;;9.55;66.32
40992;BME280;29633;49.168;9.848;2023-04-03T02:25:10;97593.69;;;9.53;66.31
40992;BME280;29633;49.168;9.848;2023-04-03T02:27:37;97604.13;;;9.52;66.25
40992;BME280;29633;49.168;9.848;2023-04-03T02:30:03;97605.91;;;9.51;66.41
40992;BME280;29633;49.168;9.848;2023-04-03T02:32:29;97600.00;;;9.49;66.31
40992;BME280;29633;49.168;9.848;2023-04-03T02:34:55;97602.56;;;9.49;66.37
40992;BME280;29633;49.168;9.848;2023-04-03T02:37:21;97592.34;;;9.48;66.26
40992;BME280;29633;49.168;9.848;2023-04-03T02:39:47;97593.13;;;9.48;66.22
40992;BME280;29633;49.168;9.848;2023-04-03T02:42:12;97595.09;;;9.45;66.33
40992;BME280;29633;49.168;9.848;2023-04-03T02:44:38;97592.81;;;9.40;66.45
40992;BME280;29633;49.168;9.848;2023-04-03T02:47:04;97599.81;;;9.38;66.23
40992;BME280;29633;49.168;9.848;2023-04-03T02:49:30;97603.34;;;9.37;66.30
40992;BME280;29633;49.168;9.848;2023-04-03T02:51:56;97599.19;;;9.34;66.56
40992;BME280;29633;49.168;9.848;2023-04-03T02:54:22;97605.19;;;9.35;66.17
40992;BME280;29633;49.168;9.848;2023-04-03T02:56:49;97602.69;;;9.33;66.36
40992;BME280;29633;49.168;9.848;2023-04-03T02:59:14;97599.38;;;9.31;66.14
40992;BME280;29633;49.168;9.848;2023-04-03T03:01:40;97603.72;;;9.31;66.25
40992;BME280;29633;49.168;9.848;2023-04-03T03:04:06;97611.59;;;9.29;66.31
40992;BME280;29633;49.168;9.848;2023-04-03T03:06:32;97601.31;;;9.28;66.14
40992;BME280;29633;49.168;9.848;2023-04-03T03:08:58;97593.56;;;9.28;66.29
40992;BME280;29633;49.168;9.848;2023-04-03T03:11:23;97600.41;;;9.29;66.25
40992;BME280;29633;49.168;9.848;2023-04-03T03:13:49;97600.59;;;9.26;66.06
40992;BME280;29633;49.168;9.848;2023-04-03T03:16:14;97602.44;;;9.24;66.09
40992;BME280;29633;49.168;9.848;2023-04-03T03:18:40;97593.97;;;9.22;66.25
40992;BME280;29633;49.168;9.848;2023-04-03T03:21:06;97594.13;;;9.19;66.08
40992;BME280;29633;49.168;9.848;2023-04-03T03:23:32;97597.72;;;9.16;66.25
40992;BME280;29633;49.168;9.848;2023-04-03T03:26:03;97599.47;;;9.16;66.22
40992;BME280;29633;49.168;9.848;2023-04-03T03:28:30;97604.84;;;9.13;65.94
40992;BME280;29633;49.168;9.848;2023-04-03T03:30:57;97609.31;;;9.11;66.23
40992;BME280;29633;49.168;9.848;2023-04-03T03:33:22;97602.53;;;9.08;66.18
40992;BME280;29633;49.168;9.848;2023-04-03T03:35:48;97600.97;;;9.06;66.18
40992;BME280;29633;49.168;9.848;2023-04-03T03:38:14;97605.31;;;9.05;66.18
40992;BME280;29633;49.168;9.848;2023-04-03T03:40:39;97596.72;;;9.05;65.95
40992;BME280;29633;49.168;9.848;2023-04-03T03:43:05;97609.75;;;9.03;65.99
40992;BME280;29633;49.168;9.848;2023-04-03T03:45:31;97601.19;;;9.03;66.04
40992;BME280;29633;49.168;9.848;2023-04-03T03:47:57;97601.25;;;9.01;66.04
40992;BME280;29633;49.168;9.848;2023-04-03T03:50:22;97590.91;;;9.01;65.91
40992;BME280;29633;49.168;9.848;2023-04-03T03:52:48;97587.59;;;8.99;65.89
40992;BME280;29633;49.168;9.848;2023-04-03T03:55:13;97594.59;;;8.97;65.90
40992;BME280;29633;49.168;9.848;2023-04-03T03:57:39;97591.22;;;8.97;65.96
40992;BME280;29633;49.168;9.848;2023-04-03T04:00:06;97587.03;;;8.94;65.81
40992;BME280;29633;49.168;9.848;2023-04-03T04:02:32;97583.81;;;8.90;65.86
40992;BME280;29633;49.168;9.848;2023-04-03T04:04:58;97588.97;;;8.90;65.93
40992;BME280;29633;49.168;9.848;2023-04-03T04:07:24;97592.50;;;8.89;66.14
40992;BME280;29633;49.168;9.848;2023-04-03T04:09:49;97591.75;;;8.87;65.86
40992;BME280;29633;49.168;9.848;2023-04-03T04:12:15;97588.44;;;8.85;65.73
40992;BME280;29633;49.168;9.848;2023-04-03T04:14:41;97585.84;;;8.85;65.93
40992;BME280;29633;49.168;9.848;2023-04-03T04:17:07;97591.94;;;8.84;65.84
40992;BME280;29633;49.168;9.848;2023-04-03T04:19:32;97596.53;;;8.79;65.97
40992;BME280;29633;49.168;9.848;2023-04-03T04:21:58;97590.66;;;8.77;65.85
40992;BME280;29633;49.168;9.848;2023-04-03T04:24:24;97593.31;;;8.76;65.95
40992;BME280;29633;49.168;9.848;2023-04-03T04:26:50;97592.78;;;8.71;65.96
40992;BME280;29633;49.168;9.848;2023-04-03T04:29:18;97596.66;;;8.64;65.83
40992;BME280;29633;49.168;9.848;2023-04-03T04:31:43;97593.31;;;8.62;65.90
40992;BME280;29633;49.168;9.848;2023-04-03T04:34:09;97596.84;;;8.61;65.87
40992;BME280;29633;49.168;9.848;2023-04-03T04:36:34;97597.81;;;8.58;65.98
40992;BME280;29633;49.168;9.848;2023-04-03T04:39:00;97597.09;;;8.56;65.88
40992;BME280;29633;49.168;9.848;2023-04-03T04:41:26;97592.84;;;8.55;65.95
40992;BME280;29633;49.168;9.848;2023-04-03T04:43:51;97593.09;;;8.51;65.81
40992;BME280;29633;49.168;9.848;2023-04-03T04:46:17;97596.00;;;8.46;65.85
40992;BME280;29633;49.168;9.848;2023-04-03T04:48:43;97598.47;;;8.48;65.78
40992;BME280;29633;49.168;9.848;2023-04-03T04:51:09;97601.88;;;8.48;65.69
40992;BME280;29633;49.168;9.848;2023-04-03T04:53:35;97601.06;;;8.48;65.56
40992;BME280;29633;49.168;9.848;2023-04-03T04:56:01;97607.97;;;8.47;65.55
40992;BME280;29633;49.168;9.848;2023-04-03T04:58:27;97604.72;;;8.44;65.71
40992;BME280;29633;49.168;9.848;2023-04-03T05:01:03;97605.75;;;8.41;65.60
40992;BME280;29633;49.168;9.848;2023-04-03T05:03:28;97598.91;;;8.40;65.55
40992;BME280;29633;49.168;9.848;2023-04-03T05:05:54;97611.81;;;8.40;65.57
40992;BME280;29633;49.168;9.848;2023-04-03T05:08:20;97610.25;;;8.37;65.63
40992;BME280;29633;49.168;9.848;2023-04-03T05:10:46;97609.59;;;8.34;65.50
40992;BME280;29633;49.168;9.848;2023-04-03T05:13:12;97608.97;;;8.30;65.53
40992;BME280;29633;49.168;9.848;2023-04-03T05:15:40;97609.94;;;8.28;65.63
40992;BME280;29633;49.168;9.848;2023-04-03T05:18:06;97613.44;;;8.27;65.71
40992;BME280;29633;49.168;9.848;2023-04-03T05:20:32;97608.44;;;8.24;65.68
40992;BME280;29633;49.168;9.848;2023-04-03T05:22:58;97607.50;;;8.25;65.52
40992;BME280;29633;49.168;9.848;2023-04-03T05:25:24;97620.59;;;8.22;65.72
40992;BME280;29633;49.168;9.848;2023-04-03T05:27:49;97608.63;;;8.21;65.70
40992;BME280;29633;49.168;9.848;2023-04-03T05:30:15;97614.72;;;8.20;65.67
40992;BME280;29633;49.168;9.848;2023-04-03T05:32:41;97614.72;;;8.20;65.60
40992;BME280;29633;49.168;9.848;2023-04-03T05:35:08;97614.72;;;8.20;65.48
40992;BME280;29633;49.168;9.848;2023-04-03T05:37:33;97611.28;;;8.19;65.66
40992;BME280;29633;49.168;9.848;2023-04-03T05:39:59;97627.69;;;8.18;65.72
40992;BME280;29633;49.168;9.848;2023-04-03T05:42:25;97627.63;;;8.20;65.78
40992;BME280;29633;49.168;9.848;2023-04-03T05:44:51;97621.69;;;8.18;65.80
40992;BME280;29633;49.168;9.848;2023-04-03T05:47:17;97625.13;;;8.18;65.63
40992;BME280;29633;49.168;9.848;2023-04-03T05:49:43;97631.13;;;8.19;65.73
40992;BME280;29633;49.168;9.848;2023-04-03T05:54:44;97630.09;;;8.21;65.57
40992;BME280;29633;49.168;9.848;2023-04-03T05:57:12;97638.63;;;8.23;65.53
40992;BME280;29633;49.168;9.848;2023-04-03T05:59:37;97623.94;;;8.24;65.68
40992;BME280;29633;49.168;9.848;2023-04-03T06:02:03;97635.91;;;8.25;65.76
40992;BME280;29633;49.168;9.848;2023-04-03T06:04:28;97645.28;;;8.27;65.48
40992;BME280;29633;49.168;9.848;2023-04-03T06:06:58;97643.53;;;8.28;65.54
40992;BME280;29633;49.168;9.848;2023-04-03T06:09:27;97631.38;;;8.30;65.59
40992;BME280;29633;49.168;9.848;2023-04-03T06:11:54;97634.69;;;8.32;65.25
40992;BME280;29633;49.168;9.848;2023-04-03T06:14:20;97636.16;;;8.36;65.39
40992;BME280;29633;49.168;9.848;2023-04-03T06:16:45;97639.34;;;8.41;65.44
40992;BME280;29633;49.168;9.848;2023-04-03T06:19:11;97643.41;;;8.45;65.58
40992;BME280;29633;49.168;9.848;2023-04-03T06:21:37;97643.03;;;8.51;65.57
40992;BME280;29633;49.168;9.848;2023-04-03T06:24:04;97647.19;;;8.54;65.60
40992;BME280;29633;49.168;9.848;2023-04-03T06:26:30;97647.19;;;8.54;65.54
40992;BME280;29633;49.168;9.848;2023-04-03T06:28:55;97654.69;;;8.58;65.66
40992;BME280;29633;49.168;9.848;2023-04-03T06:31:21;97658.22;;;8.57;65.68
40992;BME280;29633;49.168;9.848;2023-04-03T06:33:47;97650.34;;;8.59;65.57
40992;BME280;29633;49.168;9.848;2023-04-03T06:36:13;97657.09;;;8.61;65.53
40992;BME280;29633;49.168;9.848;2023-04-03T06:38:39;97663.75;;;8.65;65.70
40992;BME280;29633;49.168;9.848;2023-04-03T06:41:05;97659.22;;;8.69;65.58
40992;BME280;29633;49.168;9.848;2023-04-03T06:43:31;97659.16;;;8.70;65.51
40992;BME280;29633;49.168;9.848;2023-04-03T06:45:57;97669.38;;;8.72;65.62
40992;BME280;29633;49.168;9.848;2023-04-03T06:48:23;97682.31;;;8.72;65.70
40992;BME280;29633;49.168;9.848;2023-04-03T06:50:48;97683.25;;;8.71;65.60
40992;BME280;29633;49.168;9.848;2023-04-03T06:53:14;97680.56;;;8.72;65.81
40992;BME280;29633;49.168;9.848;2023-04-03T06:55:40;97682.97;;;8.75;65.66
40992;BME280;29633;49.168;9.848;2023-04-03T06:58:06;97688.88;;;8.77;65.71
40992;BME280;29633;49.168;9.848;2023-04-03T07:00:32;97690.56;;;8.78;65.97
40992;BME280;29633;49.168;9.848;2023-04-03T07:02:58;97688.63;;;8.82;65.73
40992;BME280;29633;49.168;9.848;2023-04-03T07:05:24;97691.69;;;8.88;65.73
40992;BME280;29633;49.168;9.848;2023-04-03T07:07:50;97694.25;;;8.88;65.67
40992;BME280;29633;49.168;9.848;2023-04-03T07:10:16;97694.06;;;8.92;65.68
40992;BME280;29633;49.168;9.848;2023-04-03T07:12:42;97698.03;;;8.97;65.77
40992;BME280;29633;49.168;9.848;2023-04-03T07:15:08;97693.44;;;9.02;65.70
40992;BME280;29633;49.168;9.848;2023-04-03T07:17:34;97695.66;;;9.08;65.63
40992;BME280;29633;49.168;9.848;2023-04-03T07:20:01;97692.59;;;9.16;65.86
40992;BME280;29633;49.168;9.848;2023-04-03T07:22:29;97695.75;;;9.21;65.68
40992;BME280;29633;49.168;9.848;2023-04-03T07:24:55;97705.72;;;9.27;65.64
40992;BME280;29633;49.168;9.848;2023-04-03T07:27:21;97709.16;;;9.27;65.56
40992;BME280;29633;49.168;9.848;2023-04-03T07:29:46;97708.97;;;9.30;65.67
40992;BME280;29633;49.168;9.848;2023-04-03T07:32:14;97714.72;;;9.35;65.76
40992;BME280;29633;49.168;9.848;2023-04-03T07:34:40;97705.91;;;9.38;65.86
40992;BME280;29633;49.168;9.848;2023-04-03T07:37:06;97711.75;;;9.42;65.75
40992;BME280;29633;49.168;9.848;2023-04-03T07:39:32;97714.88;;;9.47;65.63
40992;BME280;29633;49.168;9.848;2023-04-03T07:41:58;97720.91;;;9.47;65.71
40992;BME280;29633;49.168;9.848;2023-04-03T07:44:24;97723.38;;;9.49;65.67
40992;BME280;29633;49.168;9.848;2023-04-03T07:46:50;97723.94;;;9.54;65.79
40992;BME280;29633;49.168;9.848;2023-04-03T07:49:17;97727.38;;;9.54;65.69
40992;BME280;29633;49.168;9.848;2023-04-03T07:51:44;97725.50;;;9.56;65.83
40992;BME280;29633;49.168;9.848;2023-04-03T07:54:09;97720.97;;;9.60;65.66
40992;BME280;29633;49.168;9.848;2023-04-03T07:56:35;97724.00;;;9.66;65.69
40992;BME280;29633;49.168;9.848;2023-04-03T07:59:01;97721.16;;;9.71;65.71
40992;BME280;29633;49.168;9.848;2023-04-03T08:01:27;97729.56;;;9.74;65.69
40992;BME280;29633;49.168;9.848;2023-04-03T08:03:53;97724.81;;;9.81;65.53
40992;BME280;29633;49.168;9.848;2023-04-03T08:06:18;97724.63;;;9.84;65.65
40992;BME280;29633;49.168;9.848;2023-04-03T08:08:46;97723.50;;;9.88;65.65
40992;BME280;29633;49.168;9.848;2023-04-03T08:11:12;97723.22;;;9.93;65.55
40992;BME280;29633;49.168;9.848;2023-04-03T08:13:38;97733.19;;;9.99;65.35
40992;BME280;29633;49.168;9.848;2023-04-03T08:16:11;97729.22;;;10.07;65.43
40992;BME280;29633;49.168;9.848;2023-04-03T08:18:37;97735.78;;;10.13;65.44
40992;BME280;29633;49.168;9.848;2023-04-03T08:21:08;97736.13;;;10.21;65.40
40992;BME280;29633;49.168;9.848;2023-04-03T08:23:34;97725.28;;;10.28;65.28
40992;BME280;29633;49.168;9.848;2023-04-03T08:26:22;97730.19;;;10.33;65.51
40992;BME280;29633;49.168;9.848;2023-04-03T08:28:48;97733.31;;;10.38;65.28
40992;BME280;29633;49.168;9.848;2023-04-03T08:31:17;97737.28;;;10.44;65.47
40992;BME280;29633;49.168;9.848;2023-04-03T08:33:44;97737.06;;;10.47;65.29
40992;BME280;29633;49.168;9.848;2023-04-03T08:36:18;97743.50;;;10.54;65.61
40992;BME280;29633;49.168;9.848;2023-04-03T08:38:45;97738.66;;;10.62;65.42
40992;BME280;29633;49.168;9.848;2023-04-03T08:44:14;97749.19;;;10.73;65.45
40992;BME280;29633;49.168;9.848;2023-04-03T08:49:42;97745.47;;;10.77;65.52
40992;BME280;29633;49.168;9.848;2023-04-03T08:52:15;97742.44;;;10.83;65.46
40992;BME280;29633;49.168;9.848;2023-04-03T08:54:51;97745.47;;;10.90;65.38
40992;BME280;29633;49.168;9.848;2023-04-03T08:57:25;97742.66;;;10.93;65.76
40992;BME280;29633;49.168;9.848;2023-04-03T08:59:52;97747.34;;;11.00;65.60
40992;BME280;29633;49.168;9.848;2023-04-03T09:02:48;97748.50;;;11.09;65.47
40992;BME280;29633;49.168;9.848;2023-04-03T09:08:05;97748.41;;;11.23;65.44
40992;BME280;29633;49.168;9.848;2023-04-03T09:10:33;97744.69;;;11.27;65.47
40992;BME280;29633;49.168;9.848;2023-04-03T09:13:05;97752.03;;;11.33;65.29
40992;BME280;29633;49.168;9.848;2023-04-03T09:15:32;97744.56;;;11.41;65.10
40992;BME280;29633;49.168;9.848;2023-04-03T09:18:21;97746.75;;;11.47;65.08
40992;BME280;29633;49.168;9.848;2023-04-03T09:23:22;97746.13;;;11.56;65.29
40992;BME280;29633;49.168;9.848;2023-04-03T09:25:48;97746.63;;;11.61;65.29
40992;BME280;29633;49.168;9.848;2023-04-03T09:28:15;97747.84;;;11.68;65.11
40992;BME280;29633;49.168;9.848;2023-04-03T09:30:41;97745.16;;;11.70;65.11
40992;BME280;29633;49.168;9.848;2023-04-03T09:33:07;97744.16;;;11.72;65.43
40992;BME280;29633;49.168;9.848;2023-04-03T09:35:36;97741.97;;;11.79;65.30
40992;BME280;29633;49.168;9.848;2023-04-03T09:40:39;97749.44;;;11.83;65.08
40992;BME280;29633;49.168;9.848;2023-04-03T09:45:43;97738.28;;;11.94;65.26
40992;BME280;29633;49.168;9.848;2023-04-03T09:55:55;97742.63;;;12.06;65.31
40992;BME280;29633;49.168;9.848;2023-04-03T09:58:38;97750.41;;;12.06;65.04
40992;BME280;29633;49.168;9.848;2023-04-03T10:01:05;97740.84;;;12.07;65.37
40992;BME280;29633;49.168;9.848;2023-04-03T10:03:34;97740.84;;;12.07;65.31
40992;BME280;29633;49.168;9.848;2023-04-03T10:06:02;97738.47;;;12.04;65.33
40992;BME280;29633;49.168;9.848;2023-04-03T10:08:34;97743.56;;;12.05;65.12
40992;BME280;29633;49.168;9.848;2023-04-03T10:11:08;97735.53;;;12.08;65.28
40992;BME280;29633;49.168;9.848;2023-04-03T10:13:35;97735.44;;;12.10;65.16
40992;BME280;29633;49.168;9.848;2023-04-03T10:16:12;97729.53;;;12.08;65.09
40992;BME280;29633;49.168;9.848;2023-04-03T10:19:03;97725.50;;;12.04;65.21
40992;BME280;29633;49.168;9.848;2023-04-03T10:21:45;97719.22;;;12.06;65.11
40992;BME280;29633;49.168;9.848;2023-04-03T10:27:10;97730.91;;;12.01;65.06
40992;BME280;29633;49.168;9.848;2023-04-03T10:29:59;97729.47;;;11.97;65.11
40992;BME280;29633;49.168;9.848;2023-04-03T10:32:45;97734.03;;;11.93;65.07
40992;BME280;29633;49.168;9.848;2023-04-03T10:51:02;97726.94;;;12.08;64.65
40992;BME280;29633;49.168;9.848;2023-04-03T10:53:43;97726.72;;;12.11;64.59
40992;BME280;29633;49.168;9.848;2023-04-03T10:56:15;97723.16;;;12.12;64.58
40992;BME280;29633;49.168;9.848;2023-04-03T10:58:50;97722.22;;;12.13;64.61
40992;BME280;29633;49.168;9.848;2023-04-03T11:01:24;97715.25;;;12.13;64.74
40992;BME280;29633;49.168;9.848;2023-04-03T11:03:58;97722.97;;;12.15;64.77
40992;BME280;29633;49.168;9.848;2023-04-03T11:06:26;97728.75;;;12.18;64.42
40992;BME280;29633;49.168;9.848;2023-04-03T11:08:58;97719.81;;;12.22;64.52
40992;BME280;29633;49.168;9.848;2023-04-03T11:11:36;97718.25;;;12.20;64.55
40992;BME280;29633;49.168;9.848;2023-04-03T11:14:22;97706.91;;;12.21;64.52
40992;BME280;29633;49.168;9.848;2023-04-03T11:17:02;97710.03;;;12.26;64.05
40992;BME280;29633;49.168;9.848;2023-04-03T11:22:26;97705.00;;;12.23;64.12
40992;BME280;29633;49.168;9.848;2023-04-03T11:25:20;97710.72;;;12.28;64.28
40992;BME280;29633;49.168;9.848;2023-04-03T11:27:58;97696.34;;;12.35;64.21
40992;BME280;29633;49.168;9.848;2023-04-03T11:30:26;97700.38;;;12.39;64.18
40992;BME280;29633;49.168;9.848;2023-04-03T11:35:45;97687.88;;;12.44;64.38
40992;BME280;29633;49.168;9.848;2023-04-03T11:38:33;97694.63;;;12.47;64.35
40992;BME280;29633;49.168;9.848;2023-04-03T11:41:03;97703.97;;;12.49;64.00
40992;BME280;29633;49.168;9.848;2023-04-03T11:43:31;97705.63;;;12.50;64.27
40992;BME280;29633;49.168;9.848;2023-04-03T11:46:01;97702.28;;;12.48;64.14
40992;BME280;29633;49.168;9.848;2023-04-03T11:53:54;97703.31;;;12.58;63.91
40992;BME280;29633;49.168;9.848;2023-04-03T11:56:40;97693.38;;;12.63;63.83
40992;BME280;29633;49.168;9.848;2023-04-03T12:01:45;97684.66;;;12.75;63.62
40992;BME280;29633;49.168;9.848;2023-04-03T12:04:12;97686.22;;;12.78;63.78
40992;BME280;29633;49.168;9.848;2023-04-03T12:09:26;97682.91;;;12.76;63.86
40992;BME280;29633;49.168;9.848;2023-04-03T12:11:55;97682.91;;;12.76;63.86
40992;BME280;29633;49.168;9.848;2023-04-03T12:14:23;97689.31;;;12.83;63.73
40992;BME280;29633;49.168;9.848;2023-04-03T12:16:50;97678.56;;;12.88;63.91
40992;BME280;29633;49.168;9.848;2023-04-03T12:29:43;97673.88;;;13.15;63.44
40992;BME280;29633;49.168;9.848;2023-04-03T12:32:34;97666.19;;;13.13;63.39
40992;BME280;29633;49.168;9.848;2023-04-03T12:35:18;97660.75;;;13.16;63.37
40992;BME280;29633;49.168;9.848;2023-04-03T12:38:16;97665.50;;;13.22;63.23
40992;BME280;29633;49.168;9.848;2023-04-03T12:40:55;97666.09;;;13.26;63.30
40992;BME280;29633;49.168;9.848;2023-04-03T12:46:23;97663.25;;;13.40;63.21
40992;BME280;29633;49.168;9.848;2023-04-03T12:48:57;97661.94;;;13.46;63.25
40992;BME280;29633;49.168;9.848;2023-04-03T12:51:28;97660.16;;;13.46;63.23
40992;BME280;29633;49.168;9.848;2023-04-03T12:54:03;97657.31;;;13.49;63.27
40992;BME280;29633;49.168;9.848;2023-04-03T12:56:31;97655.91;;;13.56;63.23
40992;BME280;29633;49.168;9.848;2023-04-03T12:59:15;97652.91;;;13.61;63.08
40992;BME280;29633;49.168;9.848;2023-04-03T13:01:42;97649.97;;;13.65;63.22
40992;BME280;29633;49.168;9.848;2023-04-03T13:04:10;97647.47;;;13.64;63.01
40992;BME280;29633;49.168;9.848;2023-04-03T13:06:41;97654.22;;;13.66;63.05
40992;BME280;29633;49.168;9.848;2023-04-03T13:09:28;97653.25;;;13.67;63.04
40992;BME280;29633;49.168;9.848;2023-04-03T13:12:02;97653.97;;;13.69;63.07
40992;BME280;29633;49.168;9.848;2023-04-03T13:14:29;97656.69;;;13.68;63.08
40992;BME280;29633;49.168;9.848;2023-04-03T13:17:03;97651.63;;;13.66;62.95
40992;BME280;29633;49.168;9.848;2023-04-03T13:19:29;97652.47;;;13.67;63.06
40992;BME280;29633;49.168;9.848;2023-04-03T13:22:04;97652.22;;;13.70;62.98
40992;BME280;29633;49.168;9.848;2023-04-03T13:24:35;97657.88;;;13.75;62.87
40992;BME280;29633;49.168;9.848;2023-04-03T13:27:02;97644.00;;;13.86;62.71
40992;BME280;29633;49.168;9.848;2023-04-03T13:29:34;97643.38;;;13.93;62.65
40992;BME280;29633;49.168;9.848;2023-04-03T13:32:01;97635.91;;;14.00;62.78
40992;BME280;29633;49.168;9.848;2023-04-03T13:34:32;97641.31;;;14.08;62.52
40992;BME280;29633;49.168;9.848;2023-04-03T13:37:01;97635.38;;;14.17;62.59
40992;BME280;29633;49.168;9.848;2023-04-03T13:39:38;97634.19;;;14.21;62.70
40992;BME280;29633;49.168;9.848;2023-04-03T13:42:25;97635.72;;;14.23;62.52
40992;BME280;29633;49.168;9.848;2023-04-03T13:45:28;97639.16;;;14.24;62.56
40992;BME280;29633;49.168;9.848;2023-04-03T13:48:25;97652.44;;;14.21;62.72
40992;BME280;29633;49.168;9.848;2023-04-03T13:53:18;97641.03;;;14.22;62.63
40992;BME280;29633;49.168;9.848;2023-04-03T13:56:00;97635.59;;;14.25;62.55
40992;BME280;29633;49.168;9.848;2023-04-03T13:58:31;97622.50;;;14.36;62.42
40992;BME280;29633;49.168;9.848;2023-04-03T14:04:32;97628.19;;;14.41;62.50
40992;BME280;29633;49.168;9.848;2023-04-03T14:06:32;97623.91;;;14.40;62.33
40992;BME280;29633;49.168;9.848;2023-04-03T14:08:58;97625.13;;;14.36;62.54
40992;BME280;29633;49.168;9.848;2023-04-03T14:11:26;97623.34;;;14.37;62.29
40992;BME280;29633;49.168;9.848;2023-04-03T14:13:53;97620.09;;;14.44;62.25
40992;BME280;29633;49.168;9.848;2023-04-03T14:16:22;97621.25;;;14.51;62.19
40992;BME280;29633;49.168;9.848;2023-04-03T14:18:49;97622.66;;;14.55;62.12
40992;BME280;29633;49.168;9.848;2023-04-03T14:21:17;97617.69;;;14.52;62.12
40992;BME280;29633;49.168;9.848;2023-04-03T14:23:43;97623.44;;;14.46;62.22
40992;BME280;29633;49.168;9.848;2023-04-03T14:26:16;97620.94;;;14.45;62.09
40992;BME280;29633;49.168;9.848;2023-04-03T14:28:47;97614.88;;;14.44;61.93
40992;BME280;29633;49.168;9.848;2023-04-03T14:31:14;97602.41;;;14.48;61.91
40992;BME280;29633;49.168;9.848;2023-04-03T14:33:40;97602.16;;;14.51;62.01
40992;BME280;29633;49.168;9.848;2023-04-03T14:38:39;97607.94;;;14.54;61.65
40992;BME280;29633;49.168;9.848;2023-04-03T14:41:05;97607.25;;;14.52;61.70